Don's Testing Zone


Current Conditions
weather data
source:

National Weather Service
Cloudy Little Rock, AR
Cloudy, 70°F
Saturday, November 18, 2017 7:26 AM CST
Temperature: 70°F/21°C
Humidity: 83%
Barometer: 29.62in/1003.1mb Barometer Falling
Wind: W at 14mph/22kmh
View other cities:
Searcy | Little Rock | Hot Springs | Russellville | More...
Astronomical Conditions (Clear Sky Clock)
Searcy Clear Sky Clock
    

Radar Images

NWS
    Wx Underground

NWS METAR weather data

ADDS - METARS form results





Aviation Digital Data Service (ADDS) Output produced by METARs form (1334 UTC 18 November 2017) found at http://www.aviationweather.gov/adds/metars/ 

KLIT 181326Z 21012KT 10SM BKN025 OVC040 21/18 A2962 RMK AO2 T02110178

KLIT 181253Z 21012G20KT 10SM SCT025 OVC040 21/18 A2962 RMK AO2 PK WND 21027/1156SLP031 T02060178

KLIT 181221Z 21017G27KT 10SM BKN025 OVC040 21/18 A2962 RMK AO2 PK WND 21027/1156T02060178

KLIT 181153Z 20017G22KT 10SM FEW025 BKN040 21/18 A2962 RMK AO2 PK WND 21029/1119SLP029 60000 T02060178 10217 20206 55013

KLIT 181053Z 20020G32KT 10SM FEW025 OVC035 21/18 A2961 RMK AO2 PK WND 20032/1051SLP027 T02060178

KLIT 180953Z 21022G34KT 10SM SCT025 OVC035 21/18 A2963 RMK AO2 PK WND 21034/0945SLP034 T02110183

KLIT 180853Z 20014G26KT 10SM BKN025 OVC034 21/18 A2965 RMK AO2 PK WND 20028/0839SLP042 60000 T02110183 56023

KLIT 180753Z 20017G27KT 10SM OVC025 22/19 A2966 RMK AO2 PK WND 19029/0720 SLP045T02170189

KLIT 180653Z 20020G30KT 10SM BKN024 BKN250 21/19 A2968 RMK AO2 PK WND 19030/0653RAB16E53 SLP052 P0000 T02110189

KLIT 180553Z 20015G21KT 10SM BKN024 BKN250 21/18 A2972 RMK AO2 PK WND 20027/0510SLP065 T02110183 10211 20206 402280106 56010

KLIT 180508Z 19013G23KT 10SM BKN024 BKN250 21/18 A2972 RMK AO2 T02110183

KLIT 180453Z COR 19013G20KT 10SM FEW024 SCT041 SCT250 21/18 A2973 RMK AO2 SLP066T02110183

KLIT 180353Z 19013KT 10SM FEW041 SCT050 SCT250 21/18 A2974 RMK AO2 SLP072T02060178

KLIT 180253Z 19012G18KT 10SM FEW042 SCT055 BKN250 21/18 A2975 RMK AO2 SLP076T02110178 58009

KLIT 180153Z 18012G20KT 10SM FEW041 BKN050 BKN250 21/18 A2976 RMK AO2 SLP080T02110178

KLIT 180053Z 18010G19KT 10SM BKN042 BKN250 21/18 A2977 RMK AO2 SLP083 T02110178

KLIT 172353Z 17012KT 10SM SCT055 BKN250 21/18 A2978 RMK AO2 SLP085 T0206017810228 20206 58016

KLIT 172253Z 18013G19KT 10SM FEW029 BKN055 OVC250 22/18 A2980 RMK AO2 SLP093T02170178

KLIT 172227Z 18011G19KT 10SM SCT029 BKN055 OVC250 22/18 A2981 RMK AO2 T02170178

KLIT 172153Z 19014G18KT 10SM BKN028 OVC250 22/18 A2982 RMK AO2 SLP099 CIG RGDT02220178

KLIT 172053Z 18010KT 10SM OVC025 22/18 A2983 RMK AO2 SLP101 CIG RGD T0222017856035

KLIT 171953Z 18016G24KT 10SM OVC024 22/17 A2985 RMK AO2 SLP110 CIG RGD T02220172

KLIT 171853Z 19013G23KT 10SM OVC024 22/17 A2989 RMK AO2 SLP122 CIG RGD T02170167

KLIT 171753Z 18017G24KT 10SM BKN020 OVC040 21/16 A2993 RMK AO2 SLP136 BINOVCT02110161 10211 20106 58036

KLIT 171711Z 20009KT 10SM BKN020 OVC035 20/16 A2997 RMK AO2 T02000156

KLIT 171653Z 19010G16KT 10SM SCT025 BKN035 OVC045 19/15 A2998 RMK AO2 SLP155SCT025 V BKN BINOVC T01940150

KLIT 171553Z 17007KT 10SM FEW028 BKN035 OVC045 16/14 A3002 RMK AO2 SLP167 BINOVCT01610139

KLIT 171453Z 16006KT 10SM FEW030 BKN045 BKN070 14/12 A3004 RMK AO2 SLP172T01440122 58015

KLIT 171353Z 14007KT 10SM SCT035 BKN110 BKN200 12/11 A3005 RMK AO2 SLP177T01220111